Time;durP1;ratioP1;P1;durP2;ratioP2;P2;SDS_P1;SDS_P2;PMS_P1;PMS_P2;Temp;Humidity;BMP_temperature;BMP_pressure;BME280_temperature;BME280_humidity;BME280_pressure;Samples;Min_cycle;Max_cycle;Signal;HPM_P1;HPM_P2
2021/07/24 00:01:48;;;;;;;21.60;19.90;;;;;;;;;;5010798;28;24440;-54
2021/07/24 00:04:13;;;;;;;20.17;18.48;;;;;;;;;;5008076;28;24478;-54
2021/07/24 00:06:38;;;;;;;20.50;18.80;;;;;;;;;;5016757;28;24439;-54
2021/07/24 00:09:04;;;;;;;20.37;18.67;;;;;;;;;;5017188;28;24434;-54
2021/07/24 00:11:30;;;;;;;20.77;18.98;;;;;;;;;;5017866;28;24471;-55
2021/07/24 00:13:55;;;;;;;20.05;18.45;;;;;;;;;;5008399;28;24412;-53
2021/07/24 00:16:20;;;;;;;19.50;17.90;;;;;;;;;;5021104;28;25044;-53
2021/07/24 00:18:45;;;;;;;19.35;17.77;;;;;;;;;;5020219;28;25025;-53
2021/07/24 00:21:11;;;;;;;20.30;18.50;;;;;;;;;;5011467;28;25123;-52
2021/07/24 00:23:36;;;;;;;19.80;18.20;;;;;;;;;;5015780;28;24432;-53
2021/07/24 00:26:03;;;;;;;19.53;18.03;;;;;;;;;;5020044;28;25012;-53
2021/07/24 00:28:28;;;;;;;18.02;16.52;;;;;;;;;;5015859;28;24420;-53
2021/07/24 00:30:53;;;;;;;19.95;18.30;;;;;;;;;;5017725;28;24424;-54
2021/07/24 00:33:19;;;;;;;21.10;19.35;;;;;;;;;;5021763;28;24431;-54
2021/07/24 00:35:44;;;;;;;19.90;18.30;;;;;;;;;;5026996;28;25287;-54
2021/07/24 00:38:09;;;;;;;19.70;18.10;;;;;;;;;;5025153;28;24992;-54
2021/07/24 00:40:41;;;;;;;19.00;17.40;;;;;;;;;;5019477;28;24519;-54
2021/07/24 00:43:07;;;;;;;19.60;18.00;;;;;;;;;;5020204;28;24498;-54
2021/07/24 00:45:38;;;;;;;20.20;18.60;;;;;;;;;;5018031;28;24771;-54
2021/07/24 00:48:04;;;;;;;20.80;19.10;;;;;;;;;;5030470;28;24440;-54
2021/07/24 00:50:29;;;;;;;21.88;19.88;;;;;;;;;;5028278;28;24434;-54
2021/07/24 00:53:10;;;;;;;20.83;19.13;;;;;;;;;;5025727;28;25207;-56
2021/07/24 00:55:35;;;;;;;20.60;18.90;;;;;;;;;;5030145;28;24496;-54
2021/07/24 00:58:20;;;;;;;23.08;21.27;;;;;;;;;;5027191;28;24507;-54
2021/07/24 01:00:45;;;;;;;23.38;21.38;;;;;;;;;;5025193;28;25016;-54
2021/07/24 01:03:10;;;;;;;23.75;21.85;;;;;;;;;;5026374;28;24434;-54
2021/07/24 01:05:35;;;;;;;24.02;22.02;;;;;;;;;;5016615;28;24795;-54
2021/07/24 01:08:00;;;;;;;23.05;21.25;;;;;;;;;;5029672;28;24411;-54
2021/07/24 01:10:25;;;;;;;21.58;19.88;;;;;;;;;;5025416;28;24489;-54
2021/07/24 01:12:51;;;;;;;21.92;19.92;;;;;;;;;;5022333;28;24424;-54
2021/07/24 01:15:16;;;;;;;20.90;19.20;;;;;;;;;;5019387;28;24478;-54
2021/07/24 01:17:41;;;;;;;19.92;18.33;;;;;;;;;;5029236;28;25035;-54
2021/07/24 01:20:09;;;;;;;19.90;18.30;;;;;;;;;;5025413;28;24629;-54
2021/07/24 01:22:35;;;;;;;20.45;18.77;;;;;;;;;;5013532;28;24463;-54
2021/07/24 01:25:00;;;;;;;18.92;17.42;;;;;;;;;;5017367;28;24466;-54
2021/07/24 01:27:25;;;;;;;20.95;19.25;;;;;;;;;;5026629;28;24462;-54
2021/07/24 01:29:50;;;;;;;20.35;18.60;;;;;;;;;;5038922;28;24967;-54
2021/07/24 01:32:15;;;;;;;20.42;18.83;;;;;;;;;;5016790;28;24475;-54
2021/07/24 01:34:43;;;;;;;20.50;18.80;;;;;;;;;;5026466;28;24423;-54
2021/07/24 01:37:08;;;;;;;19.83;18.13;;;;;;;;;;5021923;28;24830;-54
2021/07/24 01:39:34;;;;;;;19.03;17.53;;;;;;;;;;5015134;28;24424;-54
2021/07/24 01:41:59;;;;;;;21.63;19.85;;;;;;;;;;5022407;28;24462;-54
2021/07/24 01:44:25;;;;;;;20.15;18.52;;;;;;;;;;5026760;28;24470;-54
2021/07/24 01:46:50;;;;;;;20.98;19.27;;;;;;;;;;5026663;28;24404;-55
2021/07/24 01:54:55;;;;;;;19.95;18.35;;;;;;;;;;5017901;28;24567;-52
2021/07/24 01:57:21;;;;;;;21.88;20.10;;;;;;;;;;5021315;28;24451;-55
2021/07/24 01:59:47;;;;;;;20.53;18.73;;;;;;;;;;5028300;28;24436;-54
2021/07/24 02:02:13;;;;;;;20.27;18.58;;;;;;;;;;5018672;28;24419;-54
2021/07/24 02:04:43;;;;;;;20.90;19.20;;;;;;;;;;5016563;28;24428;-53
2021/07/24 02:07:09;;;;;;;19.90;18.30;;;;;;;;;;5009339;28;24946;-54
2021/07/24 02:09:34;;;;;;;19.60;17.90;;;;;;;;;;5018503;28;24485;-53
2021/07/24 02:12:00;;;;;;;22.60;20.70;;;;;;;;;;5011301;28;24415;-54
2021/07/24 02:14:25;;;;;;;20.27;18.67;;;;;;;;;;5018818;28;24422;-54
2021/07/24 02:16:50;;;;;;;19.20;17.70;;;;;;;;;;5012549;28;24498;-54
2021/07/24 02:19:15;;;;;;;20.10;18.50;;;;;;;;;;5019628;28;24534;-54
2021/07/24 02:21:40;;;;;;;20.20;18.60;;;;;;;;;;5016605;28;24508;-52
2021/07/24 02:24:06;;;;;;;21.95;19.95;;;;;;;;;;5014965;28;24431;-53
2021/07/24 02:26:31;;;;;;;19.80;18.20;;;;;;;;;;5015247;28;24965;-53
2021/07/24 02:28:56;;;;;;;19.40;17.70;;;;;;;;;;5012201;28;24416;-53
2021/07/24 02:31:21;;;;;;;19.40;17.80;;;;;;;;;;5015521;28;24419;-54
2021/07/24 02:33:46;;;;;;;21.37;19.67;;;;;;;;;;5021294;28;25047;-54
2021/07/24 02:36:11;;;;;;;21.20;19.50;;;;;;;;;;5024395;28;24464;-54
2021/07/24 02:38:36;;;;;;;23.48;21.38;;;;;;;;;;5021835;28;25072;-54
2021/07/24 02:41:04;;;;;;;23.07;21.17;;;;;;;;;;5018558;28;24481;-54
2021/07/24 02:43:29;;;;;;;21.07;19.27;;;;;;;;;;5025469;28;24833;-54
2021/07/24 02:45:54;;;;;;;20.47;18.87;;;;;;;;;;5023442;28;24508;-54
2021/07/24 02:48:19;;;;;;;22.02;20.13;;;;;;;;;;5011256;28;24510;-53
2021/07/24 02:50:44;;;;;;;21.50;19.70;;;;;;;;;;5021924;28;24420;-53
2021/07/24 02:53:10;;;;;;;20.75;19.05;;;;;;;;;;5025844;28;24442;-53
2021/07/24 02:55:35;;;;;;;18.75;17.23;;;;;;;;;;5016341;28;24420;-53
2021/07/24 02:58:00;;;;;;;19.13;17.63;;;;;;;;;;5025564;28;24423;-54
2021/07/24 03:00:25;;;;;;;18.17;16.77;;;;;;;;;;5024028;28;24420;-53
2021/07/24 03:02:50;;;;;;;19.45;17.85;;;;;;;;;;5015610;28;24571;-54
2021/07/24 03:05:15;;;;;;;18.70;17.27;;;;;;;;;;5017129;28;24412;-53
2021/07/24 03:07:41;;;;;;;18.63;17.03;;;;;;;;;;5008730;28;24783;-54
2021/07/24 03:10:06;;;;;;;18.80;17.30;;;;;;;;;;5017873;28;24968;-53
2021/07/24 03:12:31;;;;;;;18.90;17.40;;;;;;;;;;5016765;28;25035;-54
2021/07/24 03:14:56;;;;;;;17.70;16.20;;;;;;;;;;5014760;28;24455;-54
2021/07/24 03:17:22;;;;;;;18.07;16.57;;;;;;;;;;5022651;28;24431;-54
2021/07/24 03:19:47;;;;;;;17.60;16.00;;;;;;;;;;5023880;28;24428;-54
2021/07/24 03:22:12;;;;;;;19.10;17.55;;;;;;;;;;5025017;28;24922;-53
2021/07/24 03:24:38;;;;;;;17.67;16.17;;;;;;;;;;5022711;28;24430;-53
2021/07/24 03:27:03;;;;;;;17.60;16.10;;;;;;;;;;5007891;28;24388;-53
2021/07/24 03:29:28;;;;;;;16.83;15.52;;;;;;;;;;5017515;28;24452;-54
2021/07/24 03:31:53;;;;;;;18.10;16.60;;;;;;;;;;5017614;28;24498;-54
2021/07/24 03:34:18;;;;;;;16.67;15.38;;;;;;;;;;5023216;28;24432;-54
2021/07/24 03:36:43;;;;;;;17.25;15.75;;;;;;;;;;5014393;28;24432;-54
2021/07/24 03:39:09;;;;;;;17.20;15.70;;;;;;;;;;5018117;28;24415;-54
2021/07/24 03:41:35;;;;;;;16.40;15.00;;;;;;;;;;5020113;28;24993;-54
2021/07/24 03:44:00;;;;;;;17.58;15.90;;;;;;;;;;5017582;28;24455;-54
2021/07/24 03:46:26;;;;;;;18.20;16.80;;;;;;;;;;5017765;28;24416;-54
2021/07/24 03:48:52;;;;;;;17.45;15.95;;;;;;;;;;5018586;28;24966;-54
2021/07/24 03:51:17;;;;;;;16.20;14.80;;;;;;;;;;5020995;28;24459;-54
2021/07/24 03:53:42;;;;;;;16.40;15.10;;;;;;;;;;5029964;28;24504;-54
2021/07/24 03:56:20;;;;;;;16.70;15.30;;;;;;;;;;5014549;28;25080;-54
2021/07/24 03:58:47;;;;;;;17.50;16.10;;;;;;;;;;5013746;28;24417;-54
2021/07/24 04:01:12;;;;;;;16.30;14.90;;;;;;;;;;5023074;28;24522;-54
2021/07/24 04:03:37;;;;;;;16.98;15.57;;;;;;;;;;5016628;28;24421;-55
2021/07/24 04:06:03;;;;;;;14.60;13.40;;;;;;;;;;5021509;28;24766;-54
2021/07/24 04:08:29;;;;;;;14.80;13.60;;;;;;;;;;5015891;28;24469;-54
2021/07/24 04:10:54;;;;;;;15.80;14.50;;;;;;;;;;5025154;28;24438;-54
2021/07/24 04:13:19;;;;;;;14.10;13.00;;;;;;;;;;5024944;28;24420;-54
2021/07/24 04:15:45;;;;;;;16.33;15.03;;;;;;;;;;5029231;28;24568;-54
2021/07/24 04:18:10;;;;;;;13.67;12.67;;;;;;;;;;5020557;28;24976;-54
2021/07/24 04:20:35;;;;;;;13.30;12.30;;;;;;;;;;5017752;28;24461;-54
2021/07/24 04:23:01;;;;;;;13.97;12.90;;;;;;;;;;5017705;28;24517;-54
2021/07/24 04:25:26;;;;;;;14.93;13.73;;;;;;;;;;5012196;28;24430;-54
2021/07/24 04:27:53;;;;;;;13.60;12.50;;;;;;;;;;5020902;28;24452;-54
2021/07/24 04:30:18;;;;;;;15.25;14.05;;;;;;;;;;5028450;28;24427;-54
2021/07/24 04:32:43;;;;;;;14.37;13.27;;;;;;;;;;5025685;28;24435;-55
2021/07/24 04:35:08;;;;;;;23.52;17.65;;;;;;;;;;5025768;28;25150;-55
2021/07/24 04:37:33;;;;;;;12.63;11.63;;;;;;;;;;5027723;28;24454;-55
2021/07/24 04:40:00;;;;;;;13.60;12.50;;;;;;;;;;5023266;28;25004;-55
2021/07/24 04:42:25;;;;;;;13.45;12.35;;;;;;;;;;5027897;28;24523;-54
2021/07/24 04:44:50;;;;;;;12.60;11.60;;;;;;;;;;5014215;28;24576;-55
2021/07/24 04:47:15;;;;;;;10.63;9.82;;;;;;;;;;5022566;28;24455;-54
2021/07/24 04:49:44;;;;;;;13.70;12.60;;;;;;;;;;5026876;28;24801;-55
2021/07/24 04:52:10;;;;;;;12.20;11.30;;;;;;;;;;5016853;28;24447;-55
2021/07/24 04:54:35;;;;;;;12.25;11.35;;;;;;;;;;5022121;28;24510;-55
2021/07/24 04:57:00;;;;;;;13.20;12.10;;;;;;;;;;5026797;28;24449;-54
2021/07/24 04:59:25;;;;;;;13.10;12.00;;;;;;;;;;5015352;28;24407;-54
2021/07/24 05:01:50;;;;;;;12.20;11.30;;;;;;;;;;5011677;28;24997;-55
2021/07/24 05:04:16;;;;;;;11.80;10.90;;;;;;;;;;5011825;28;24519;-55
2021/07/24 05:06:41;;;;;;;11.60;10.70;;;;;;;;;;5020837;28;24416;-54
2021/07/24 05:09:06;;;;;;;11.35;10.55;;;;;;;;;;5014145;28;24451;-55
2021/07/24 05:11:32;;;;;;;13.27;12.27;;;;;;;;;;5010142;28;24439;-55
2021/07/24 05:13:57;;;;;;;11.60;10.80;;;;;;;;;;5017405;28;24523;-55
2021/07/24 05:16:22;;;;;;;13.00;12.00;;;;;;;;;;5027582;28;24460;-55
2021/07/24 05:18:47;;;;;;;12.05;11.15;;;;;;;;;;5020932;28;24426;-55
2021/07/24 05:21:17;;;;;;;11.80;10.80;;;;;;;;;;5023510;28;24500;-55
2021/07/24 05:23:45;;;;;;;13.05;11.95;;;;;;;;;;5020214;28;24435;-55
2021/07/24 05:26:16;;;;;;;12.50;11.40;;;;;;;;;;5027797;28;24550;-56
2021/07/24 05:28:42;;;;;;;11.85;10.95;;;;;;;;;;5017269;28;24418;-55
2021/07/24 05:31:17;;;;;;;12.90;11.90;;;;;;;;;;5018952;28;24423;-54
2021/07/24 05:33:42;;;;;;;12.90;11.90;;;;;;;;;;5018499;28;24419;-54
2021/07/24 05:36:07;;;;;;;12.67;11.67;;;;;;;;;;5035615;28;24975;-54
2021/07/24 05:38:32;;;;;;;12.70;11.70;;;;;;;;;;5026228;28;24412;-54
2021/07/24 05:40:59;;;;;;;13.43;12.33;;;;;;;;;;5022690;28;24567;-55
2021/07/24 05:43:24;;;;;;;12.70;11.60;;;;;;;;;;5010838;28;24519;-56
2021/07/24 05:45:50;;;;;;;12.10;11.20;;;;;;;;;;5021876;28;24551;-56
2021/07/24 05:48:16;;;;;;;13.20;12.10;;;;;;;;;;5018836;28;24506;-56
2021/07/24 05:50:41;;;;;;;13.67;12.57;;;;;;;;;;5019670;28;24530;-56
2021/07/24 05:53:06;;;;;;;13.37;12.27;;;;;;;;;;5019431;28;24516;-55
2021/07/24 05:55:31;;;;;;;13.10;12.00;;;;;;;;;;5023018;28;24415;-56
2021/07/24 05:57:56;;;;;;;12.57;11.68;;;;;;;;;;5028023;28;25011;-55
2021/07/24 06:00:22;;;;;;;12.80;11.80;;;;;;;;;;5031025;28;24427;-56
2021/07/24 06:02:47;;;;;;;12.37;11.53;;;;;;;;;;5026719;28;24453;-56
2021/07/24 06:05:13;;;;;;;12.30;11.40;;;;;;;;;;5020870;28;24443;-55
2021/07/24 06:07:38;;;;;;;12.23;11.33;;;;;;;;;;5031254;28;24427;-58
2021/07/24 06:10:13;;;;;;;12.55;11.65;;;;;;;;;;5036156;28;24978;-54
2021/07/24 06:12:38;;;;;;;12.20;11.30;;;;;;;;;;5009485;28;25285;-56
2021/07/24 06:15:03;;;;;;;11.70;10.70;;;;;;;;;;5033660;28;24417;-55
2021/07/24 06:17:28;;;;;;;12.07;11.17;;;;;;;;;;5037921;28;25026;-55
2021/07/24 06:19:54;;;;;;;12.77;11.73;;;;;;;;;;5022551;28;24890;-55
2021/07/24 06:22:19;;;;;;;12.27;11.27;;;;;;;;;;5039773;28;24411;-55
2021/07/24 06:24:44;;;;;;;12.23;11.43;;;;;;;;;;5030128;28;25054;-55
2021/07/24 06:27:09;;;;;;;12.37;11.43;;;;;;;;;;5038390;28;24541;-55
2021/07/24 06:29:34;;;;;;;12.93;11.90;;;;;;;;;;5022298;28;24435;-55
2021/07/24 06:31:59;;;;;;;12.20;11.20;;;;;;;;;;5016666;28;24431;-55
2021/07/24 06:34:24;;;;;;;13.00;12.00;;;;;;;;;;5012313;28;25076;-55
2021/07/24 06:36:50;;;;;;;12.40;11.40;;;;;;;;;;5020132;28;24432;-55
2021/07/24 06:39:15;;;;;;;13.55;12.35;;;;;;;;;;5024183;28;24428;-55
2021/07/24 06:41:40;;;;;;;12.90;11.90;;;;;;;;;;5011223;28;25384;-55
2021/07/24 06:44:05;;;;;;;14.40;13.20;;;;;;;;;;5022905;28;24517;-54
2021/07/24 06:46:31;;;;;;;13.70;12.60;;;;;;;;;;5011329;28;24585;-54
2021/07/24 06:48:59;;;;;;;12.45;11.45;;;;;;;;;;5021945;28;24439;-55
2021/07/24 06:51:25;;;;;;;12.07;11.18;;;;;;;;;;5027635;28;24990;-54
2021/07/24 06:53:50;;;;;;;12.17;11.27;;;;;;;;;;5042907;28;24629;-54
2021/07/24 06:56:15;;;;;;;12.60;11.60;;;;;;;;;;5041659;28;24999;-55
2021/07/24 06:58:40;;;;;;;12.32;11.43;;;;;;;;;;5038504;28;24973;-55
2021/07/24 07:01:07;;;;;;;13.27;12.17;;;;;;;;;;5022448;28;24419;-54
2021/07/24 07:03:32;;;;;;;13.10;12.00;;;;;;;;;;5034262;28;24478;-54
2021/07/24 07:05:57;;;;;;;12.90;11.90;;;;;;;;;;5041322;28;24749;-55
2021/07/24 07:08:23;;;;;;;12.80;11.75;;;;;;;;;;5031678;28;24416;-54
2021/07/24 07:10:49;;;;;;;11.77;10.77;;;;;;;;;;5032759;28;24480;-56
2021/07/24 07:13:14;;;;;;;11.87;10.97;;;;;;;;;;5040875;28;24968;-55
2021/07/24 07:15:39;;;;;;;12.63;11.63;;;;;;;;;;5016483;28;24415;-55
2021/07/24 07:18:04;;;;;;;12.77;11.77;;;;;;;;;;5045408;28;24423;-55
2021/07/24 07:20:29;;;;;;;13.13;12.03;;;;;;;;;;5026268;28;24830;-54
2021/07/24 07:22:54;;;;;;;12.97;11.97;;;;;;;;;;5031921;28;24451;-54
2021/07/24 07:25:22;;;;;;;12.25;11.25;;;;;;;;;;5020496;28;25082;-54
2021/07/24 07:27:47;;;;;;;13.20;12.20;;;;;;;;;;5010934;28;24443;-55
2021/07/24 07:30:13;;;;;;;13.40;12.27;;;;;;;;;;5033771;28;24795;-55
2021/07/24 07:32:38;;;;;;;13.00;11.80;;;;;;;;;;5028779;28;24427;-55
2021/07/24 07:35:04;;;;;;;12.10;11.10;;;;;;;;;;5025950;28;24443;-55
2021/07/24 07:37:29;;;;;;;12.10;11.20;;;;;;;;;;5022331;28;24547;-55
2021/07/24 07:39:54;;;;;;;13.07;11.90;;;;;;;;;;5007802;28;24408;-54
2021/07/24 07:42:19;;;;;;;13.70;12.40;;;;;;;;;;5021433;28;24435;-55
2021/07/24 07:44:44;;;;;;;13.48;12.40;;;;;;;;;;5030322;28;25091;-55
2021/07/24 07:47:10;;;;;;;13.32;12.23;;;;;;;;;;5020103;28;24420;-55
2021/07/24 07:49:35;;;;;;;12.53;11.53;;;;;;;;;;5012063;28;24441;-56
2021/07/24 07:52:00;;;;;;;12.50;11.30;;;;;;;;;;5014334;28;24427;-56
2021/07/24 07:54:30;;;;;;;12.57;11.67;;;;;;;;;;5026244;28;24464;-55
2021/07/24 07:56:55;;;;;;;12.60;11.50;;;;;;;;;;5027336;28;24416;-55
2021/07/24 07:59:20;;;;;;;13.20;12.00;;;;;;;;;;5026100;28;24406;-55
2021/07/24 08:01:46;;;;;;;13.88;12.57;;;;;;;;;;5026563;28;24435;-55
2021/07/24 08:04:11;;;;;;;13.07;11.97;;;;;;;;;;5024868;28;24982;-55
2021/07/24 08:06:36;;;;;;;13.20;12.02;;;;;;;;;;5015835;28;24423;-54
2021/07/24 08:09:01;;;;;;;12.82;11.85;;;;;;;;;;5018505;28;24415;-55
2021/07/24 08:11:26;;;;;;;13.02;12.02;;;;;;;;;;5011877;28;24930;-55
2021/07/24 08:13:54;;;;;;;13.15;12.15;;;;;;;;;;5016865;28;24487;-55
2021/07/24 08:16:20;;;;;;;13.18;12.05;;;;;;;;;;5022649;28;24435;-56
2021/07/24 08:18:45;;;;;;;13.00;12.00;;;;;;;;;;5026413;28;24893;-55
2021/07/24 08:21:10;;;;;;;13.75;12.70;;;;;;;;;;5019216;28;24467;-55
2021/07/24 08:23:36;;;;;;;12.20;11.27;;;;;;;;;;5015361;28;24644;-55
2021/07/24 08:26:01;;;;;;;13.47;12.27;;;;;;;;;;5024621;28;24547;-54
2021/07/24 08:28:26;;;;;;;13.60;12.30;;;;;;;;;;5020927;28;24429;-54
2021/07/24 08:30:52;;;;;;;13.18;12.18;;;;;;;;;;5013795;28;24412;-55
2021/07/24 08:33:17;;;;;;;12.35;11.30;;;;;;;;;;5018007;28;24979;-56
2021/07/24 08:35:42;;;;;;;12.43;11.43;;;;;;;;;;5012639;28;24424;-54
2021/07/24 08:38:07;;;;;;;12.60;11.70;;;;;;;;;;5019972;28;24420;-55
2021/07/24 08:40:32;;;;;;;12.80;11.80;;;;;;;;;;5016966;28;24839;-55
2021/07/24 08:43:04;;;;;;;12.70;11.75;;;;;;;;;;5009748;28;24404;-56
2021/07/24 08:45:29;;;;;;;13.60;12.50;;;;;;;;;;5019292;28;24422;-55
2021/07/24 08:47:54;;;;;;;13.40;12.40;;;;;;;;;;5018806;28;24456;-55
2021/07/24 08:50:19;;;;;;;13.65;12.55;;;;;;;;;;5022999;28;24984;-56
2021/07/24 08:52:46;;;;;;;13.13;12.00;;;;;;;;;;5022779;28;24783;-55
2021/07/24 08:55:12;;;;;;;12.55;11.52;;;;;;;;;;5023508;28;24422;-55
2021/07/24 08:57:39;;;;;;;13.00;12.00;;;;;;;;;;5028656;28;24415;-55
2021/07/24 09:00:05;;;;;;;12.32;11.30;;;;;;;;;;5016791;28;24500;-55
2021/07/24 09:02:31;;;;;;;13.30;12.20;;;;;;;;;;5014047;28;24601;-55
2021/07/24 09:04:59;;;;;;;13.57;12.40;;;;;;;;;;5017455;28;24417;-55
2021/07/24 09:07:28;;;;;;;13.00;12.00;;;;;;;;;;5010393;28;24499;-55
2021/07/24 09:09:58;;;;;;;12.73;11.82;;;;;;;;;;5014310;28;24824;-55
2021/07/24 09:12:23;;;;;;;13.63;12.52;;;;;;;;;;5028799;28;24451;-55
2021/07/24 09:14:49;;;;;;;12.67;11.73;;;;;;;;;;5020728;28;24520;-55
2021/07/24 09:17:18;;;;;;;12.85;11.85;;;;;;;;;;5025418;28;24924;-55
2021/07/24 09:19:43;;;;;;;12.60;11.60;;;;;;;;;;5020226;28;24463;-55
2021/07/24 09:22:27;;;;;;;13.50;12.30;;;;;;;;;;5026846;28;24415;-55
2021/07/24 09:25:05;;;;;;;13.20;12.20;;;;;;;;;;5014692;28;24460;-55
2021/07/24 09:27:30;;;;;;;12.60;11.60;;;;;;;;;;5026469;28;24422;-56
2021/07/24 09:29:55;;;;;;;12.60;11.70;;;;;;;;;;5022506;28;24420;-55
2021/07/24 09:32:21;;;;;;;11.75;10.85;;;;;;;;;;5024101;28;24423;-55
2021/07/24 09:34:46;;;;;;;12.45;11.50;;;;;;;;;;5019770;28;24837;-55
2021/07/24 09:37:27;;;;;;;12.90;11.90;;;;;;;;;;5013131;28;24506;-56
2021/07/24 09:39:53;;;;;;;12.82;11.82;;;;;;;;;;5026835;28;24396;-55
2021/07/24 09:42:20;;;;;;;13.00;11.90;;;;;;;;;;5028296;28;24774;-56
2021/07/24 09:44:45;;;;;;;12.93;11.93;;;;;;;;;;5028605;28;24404;-56
2021/07/24 09:47:10;;;;;;;13.00;12.00;;;;;;;;;;5028356;28;24387;-54
2021/07/24 09:49:38;;;;;;;12.90;11.93;;;;;;;;;;5028695;28;24430;-57
2021/07/24 09:52:14;;;;;;;11.97;11.00;;;;;;;;;;5028129;28;24412;-54
2021/07/24 09:54:40;;;;;;;12.02;11.02;;;;;;;;;;5019648;28;24813;-56
2021/07/24 09:57:05;;;;;;;12.77;11.68;;;;;;;;;;5028851;28;24972;-55
2021/07/24 09:59:34;;;;;;;13.38;12.38;;;;;;;;;;5028298;28;24392;-55
2021/07/24 10:02:00;;;;;;;12.40;11.50;;;;;;;;;;5028157;28;25271;-55
2021/07/24 10:04:29;;;;;;;12.32;11.32;;;;;;;;;;5025934;28;24591;-55
2021/07/24 10:06:58;;;;;;;11.95;11.05;;;;;;;;;;5029075;28;24407;-55
2021/07/24 10:09:27;;;;;;;12.35;11.45;;;;;;;;;;5027944;28;24987;-55
2021/07/24 10:11:53;;;;;;;12.10;11.10;;;;;;;;;;5028516;28;24398;-57
2021/07/24 10:14:18;;;;;;;10.95;10.05;;;;;;;;;;5026498;28;24948;-58
2021/07/24 10:16:43;;;;;;;11.80;10.80;;;;;;;;;;5027500;28;24418;-57
2021/07/24 10:19:09;;;;;;;12.07;11.07;;;;;;;;;;5028058;28;24555;-56
2021/07/24 10:21:34;;;;;;;12.20;11.20;;;;;;;;;;5027840;28;24751;-56
2021/07/24 10:23:59;;;;;;;12.02;11.02;;;;;;;;;;5027765;28;25072;-57
2021/07/24 10:26:26;;;;;;;11.63;10.63;;;;;;;;;;5025898;28;24451;-56
2021/07/24 10:29:01;;;;;;;11.32;10.40;;;;;;;;;;5028179;28;24826;-56
2021/07/24 10:31:29;;;;;;;11.30;10.40;;;;;;;;;;5024524;28;24425;-56
2021/07/24 10:33:57;;;;;;;11.63;10.73;;;;;;;;;;5012473;28;24428;-56
2021/07/24 10:36:31;;;;;;;10.90;10.10;;;;;;;;;;5016032;28;24424;-57
2021/07/24 10:38:58;;;;;;;11.40;10.40;;;;;;;;;;5020948;28;24424;-56
2021/07/24 10:41:23;;;;;;;10.50;9.60;;;;;;;;;;5019110;28;24426;-57
2021/07/24 10:44:00;;;;;;;10.43;9.73;;;;;;;;;;5014542;28;24420;-56
2021/07/24 10:46:40;;;;;;;10.70;9.90;;;;;;;;;;5024741;28;24419;-56
2021/07/24 10:49:28;;;;;;;9.90;9.20;;;;;;;;;;5024245;28;24981;-56
2021/07/24 10:52:12;;;;;;;10.30;9.60;;;;;;;;;;5027579;28;24782;-56
2021/07/24 10:54:52;;;;;;;11.15;10.27;;;;;;;;;;5019287;28;25083;-56
2021/07/24 10:57:35;;;;;;;9.98;9.27;;;;;;;;;;5011659;28;24993;-56
2021/07/24 11:00:16;;;;;;;10.50;9.70;;;;;;;;;;5019154;28;24511;-56
2021/07/24 11:02:44;;;;;;;10.57;9.87;;;;;;;;;;5013339;28;24439;-56
2021/07/24 11:05:22;;;;;;;10.20;9.30;;;;;;;;;;5026325;28;24798;-56
2021/07/24 11:07:48;;;;;;;10.02;9.32;;;;;;;;;;5022384;28;24416;-57
2021/07/24 11:10:13;;;;;;;11.00;10.00;;;;;;;;;;5013316;28;24413;-55
2021/07/24 11:12:39;;;;;;;10.57;9.67;;;;;;;;;;5009474;28;24417;-56
2021/07/24 11:15:05;;;;;;;10.35;9.45;;;;;;;;;;5022672;28;24836;-56
2021/07/24 11:17:30;;;;;;;10.40;9.60;;;;;;;;;;5010499;28;25255;-56
2021/07/24 11:19:55;;;;;;;10.67;9.77;;;;;;;;;;5019638;28;24473;-56
2021/07/24 11:22:25;;;;;;;10.40;9.70;;;;;;;;;;5015756;28;24415;-56
2021/07/24 11:24:50;;;;;;;10.70;9.90;;;;;;;;;;5010366;28;24489;-56
2021/07/24 11:27:16;;;;;;;11.07;10.20;;;;;;;;;;5022433;28;24493;-56
2021/07/24 11:29:41;;;;;;;10.03;9.33;;;;;;;;;;5015981;28;24503;-56
2021/07/24 11:32:07;;;;;;;11.10;10.20;;;;;;;;;;5018716;28;24408;-55
2021/07/24 11:34:33;;;;;;;11.50;10.50;;;;;;;;;;5017671;28;25062;-54
2021/07/24 11:36:58;;;;;;;10.80;9.80;;;;;;;;;;5020227;28;24428;-55
2021/07/24 11:39:24;;;;;;;10.77;10.00;;;;;;;;;;5021817;28;25062;-55
2021/07/24 11:41:50;;;;;;;11.90;10.90;;;;;;;;;;5016794;28;24512;-54
2021/07/24 11:44:24;;;;;;;11.73;10.83;;;;;;;;;;5023068;28;24442;-55
2021/07/24 11:46:57;;;;;;;11.67;10.77;;;;;;;;;;5012004;28;24972;-55
2021/07/24 11:49:22;;;;;;;11.02;10.23;;;;;;;;;;5019202;28;25075;-55
2021/07/24 11:51:47;;;;;;;11.40;10.50;;;;;;;;;;5024859;28;24471;-55
2021/07/24 11:54:12;;;;;;;10.93;9.93;;;;;;;;;;5036352;28;24624;-55
2021/07/24 11:56:37;;;;;;;11.10;10.20;;;;;;;;;;5019834;28;24985;-55
2021/07/24 11:59:02;;;;;;;10.67;9.77;;;;;;;;;;5013040;28;24421;-56
2021/07/24 12:01:27;;;;;;;10.73;9.93;;;;;;;;;;5015885;28;24980;-56
2021/07/24 12:04:06;;;;;;;11.30;10.40;;;;;;;;;;5024587;28;24505;-56
2021/07/24 12:06:33;;;;;;;11.20;10.20;;;;;;;;;;5016781;28;24774;-55
2021/07/24 12:08:58;;;;;;;11.20;10.40;;;;;;;;;;5019186;28;24998;-56
2021/07/24 12:11:24;;;;;;;11.07;10.27;;;;;;;;;;5025280;28;24440;-55
2021/07/24 12:14:00;;;;;;;11.77;10.87;;;;;;;;;;5020178;28;25024;-57
2021/07/24 12:16:33;;;;;;;11.40;10.50;;;;;;;;;;5017609;28;24416;-56
2021/07/24 12:18:58;;;;;;;11.50;10.60;;;;;;;;;;5010974;28;24429;-56
2021/07/24 12:21:32;;;;;;;11.07;10.27;;;;;;;;;;5035565;28;24427;-56
2021/07/24 12:23:58;;;;;;;11.63;10.82;;;;;;;;;;5031181;28;24430;-56
2021/07/24 12:26:28;;;;;;;11.60;10.70;;;;;;;;;;5033489;28;25190;-56
2021/07/24 12:28:53;;;;;;;11.98;11.07;;;;;;;;;;5028138;28;24577;-56
2021/07/24 12:31:23;;;;;;;12.10;11.10;;;;;;;;;;5035196;28;24936;-56
2021/07/24 12:33:49;;;;;;;11.30;10.50;;;;;;;;;;5039557;28;24425;-56
2021/07/24 12:36:15;;;;;;;10.95;10.15;;;;;;;;;;5034437;28;24428;-56
2021/07/24 12:38:40;;;;;;;11.52;10.73;;;;;;;;;;5027080;28;24979;-56
2021/07/24 12:41:05;;;;;;;10.57;9.67;;;;;;;;;;5023100;28;24420;-56
2021/07/24 12:43:32;;;;;;;11.60;10.70;;;;;;;;;;5036827;28;24843;-56
2021/07/24 12:46:13;;;;;;;12.18;11.27;;;;;;;;;;5038072;28;24427;-56
2021/07/24 12:48:42;;;;;;;11.73;10.82;;;;;;;;;;5023341;28;24857;-56
2021/07/24 12:51:08;;;;;;;12.10;11.20;;;;;;;;;;5024824;28;24426;-56
2021/07/24 12:53:33;;;;;;;12.50;11.50;;;;;;;;;;5029280;28;24427;-55
2021/07/24 12:55:58;;;;;;;11.98;11.07;;;;;;;;;;5021179;28;24825;-61
2021/07/24 12:58:23;;;;;;;11.80;10.90;;;;;;;;;;5017678;28;24426;-55
2021/07/24 13:00:49;;;;;;;12.77;11.67;;;;;;;;;;5027087;28;24821;-55
2021/07/24 13:03:14;;;;;;;11.13;10.33;;;;;;;;;;5028348;28;24527;-55
2021/07/24 13:05:39;;;;;;;11.67;10.80;;;;;;;;;;5014141;28;24496;-55
2021/07/24 13:08:05;;;;;;;11.03;10.13;;;;;;;;;;5029867;28;24906;-55
2021/07/24 13:10:30;;;;;;;11.70;10.70;;;;;;;;;;5020761;28;24410;-56
2021/07/24 13:12:55;;;;;;;10.97;10.20;;;;;;;;;;5026792;28;24404;-56
2021/07/24 13:15:20;;;;;;;12.03;11.13;;;;;;;;;;5025905;28;24771;-56
2021/07/24 13:17:45;;;;;;;11.60;10.70;;;;;;;;;;5029279;28;25258;-56
2021/07/24 13:20:11;;;;;;;11.70;10.80;;;;;;;;;;5028800;28;24478;-56
2021/07/24 13:22:36;;;;;;;12.25;11.15;;;;;;;;;;5023745;28;24416;-55
2021/07/24 13:30:31;;;;;;;11.63;10.73;;;;;;;;;;5028690;28;24458;-54
2021/07/24 13:32:57;;;;;;;11.57;10.77;;;;;;;;;;5012587;28;24425;-56
2021/07/24 13:35:22;;;;;;;11.30;10.50;;;;;;;;;;5020817;28;24503;-54
2021/07/24 13:37:47;;;;;;;10.73;9.93;;;;;;;;;;5023561;28;24455;-54
2021/07/24 13:40:12;;;;;;;11.03;10.23;;;;;;;;;;5011769;28;25253;-55
2021/07/24 13:42:38;;;;;;;11.30;10.50;;;;;;;;;;5017359;28;24424;-55
2021/07/24 13:45:03;;;;;;;11.40;10.50;;;;;;;;;;5011575;28;25001;-54
2021/07/24 13:47:28;;;;;;;10.80;9.90;;;;;;;;;;5019140;28;25004;-55
2021/07/24 13:49:53;;;;;;;11.73;10.73;;;;;;;;;;5016053;28;25227;-54
2021/07/24 13:52:18;;;;;;;11.37;10.47;;;;;;;;;;5029215;28;24399;-56
2021/07/24 13:54:44;;;;;;;11.27;10.38;;;;;;;;;;5029501;28;24913;-55
2021/07/24 13:57:09;;;;;;;11.73;10.93;;;;;;;;;;5026381;28;24450;-55
2021/07/24 13:59:34;;;;;;;11.27;10.40;;;;;;;;;;5009354;28;24818;-55
2021/07/24 14:01:59;;;;;;;10.80;10.10;;;;;;;;;;5015264;28;24763;-55
2021/07/24 14:04:24;;;;;;;11.77;10.90;;;;;;;;;;5020504;28;24423;-55
2021/07/24 14:06:50;;;;;;;12.13;11.13;;;;;;;;;;5013476;28;24412;-55
2021/07/24 14:09:16;;;;;;;11.57;10.68;;;;;;;;;;5026573;28;24443;-54
2021/07/24 14:11:42;;;;;;;11.80;10.90;;;;;;;;;;5008944;28;24934;-55
2021/07/24 14:14:07;;;;;;;11.13;10.40;;;;;;;;;;5008904;28;24415;-55
2021/07/24 14:16:33;;;;;;;11.68;10.77;;;;;;;;;;5016905;28;24411;-55
2021/07/24 14:18:58;;;;;;;11.48;10.68;;;;;;;;;;5028295;28;24388;-55
2021/07/24 14:21:23;;;;;;;10.68;9.80;;;;;;;;;;5028663;28;24913;-55
2021/07/24 14:23:50;;;;;;;12.07;11.17;;;;;;;;;;5028884;28;24423;-55
2021/07/24 14:26:15;;;;;;;11.10;10.20;;;;;;;;;;5028494;28;24438;-55